sensor_id;sensor_type;location;lat;lon;timestamp;P1;durP1;ratioP1;P2;durP2;ratioP2
11791;SDS011;5953;52.372;9.918;2023-06-22T00:00:30;12.30;;;11.17;;
11791;SDS011;5953;52.372;9.918;2023-06-22T00:02:58;12.60;;;11.53;;
11791;SDS011;5953;52.372;9.918;2023-06-22T00:05:26;13.05;;;11.95;;
11791;SDS011;5953;52.372;9.918;2023-06-22T00:07:55;13.07;;;11.80;;
11791;SDS011;5953;52.372;9.918;2023-06-22T00:10:22;12.13;;;10.93;;
11791;SDS011;5953;52.372;9.918;2023-06-22T00:12:51;12.40;;;11.30;;
11791;SDS011;5953;52.372;9.918;2023-06-22T00:15:19;12.33;;;11.23;;
11791;SDS011;5953;52.372;9.918;2023-06-22T00:17:47;12.37;;;11.17;;
11791;SDS011;5953;52.372;9.918;2023-06-22T00:20:15;12.60;;;11.40;;
11791;SDS011;5953;52.372;9.918;2023-06-22T00:22:44;12.27;;;11.17;;
11791;SDS011;5953;52.372;9.918;2023-06-22T00:25:12;11.93;;;10.73;;
11791;SDS011;5953;52.372;9.918;2023-06-22T00:27:39;12.20;;;11.10;;
11791;SDS011;5953;52.372;9.918;2023-06-22T00:30:09;12.13;;;11.03;;
11791;SDS011;5953;52.372;9.918;2023-06-22T00:32:38;12.03;;;10.83;;
11791;SDS011;5953;52.372;9.918;2023-06-22T00:35:06;11.77;;;10.77;;
11791;SDS011;5953;52.372;9.918;2023-06-22T00:37:35;12.10;;;11.00;;
11791;SDS011;5953;52.372;9.918;2023-06-22T00:40:03;13.47;;;10.73;;
11791;SDS011;5953;52.372;9.918;2023-06-22T00:42:31;11.90;;;10.80;;
11791;SDS011;5953;52.372;9.918;2023-06-22T00:44:59;13.07;;;11.80;;
11791;SDS011;5953;52.372;9.918;2023-06-22T00:47:28;12.77;;;11.67;;
11791;SDS011;5953;52.372;9.918;2023-06-22T00:49:56;13.67;;;12.33;;
11791;SDS011;5953;52.372;9.918;2023-06-22T00:52:25;12.63;;;11.63;;
11791;SDS011;5953;52.372;9.918;2023-06-22T00:54:55;12.40;;;11.20;;
11791;SDS011;5953;52.372;9.918;2023-06-22T00:57:24;14.10;;;12.60;;
11791;SDS011;5953;52.372;9.918;2023-06-22T00:59:54;14.23;;;12.83;;
11791;SDS011;5953;52.372;9.918;2023-06-22T01:02:22;13.30;;;12.10;;
11791;SDS011;5953;52.372;9.918;2023-06-22T01:04:51;13.43;;;12.17;;
11791;SDS011;5953;52.372;9.918;2023-06-22T01:07:24;15.13;;;13.50;;
11791;SDS011;5953;52.372;9.918;2023-06-22T01:09:59;13.47;;;12.27;;
11791;SDS011;5953;52.372;9.918;2023-06-22T01:12:34;13.20;;;12.00;;
11791;SDS011;5953;52.372;9.918;2023-06-22T01:15:08;14.37;;;13.10;;
11791;SDS011;5953;52.372;9.918;2023-06-22T01:17:41;14.80;;;13.40;;
11791;SDS011;5953;52.372;9.918;2023-06-22T01:20:12;14.63;;;13.33;;
11791;SDS011;5953;52.372;9.918;2023-06-22T01:22:45;13.83;;;12.63;;
11791;SDS011;5953;52.372;9.918;2023-06-22T01:25:26;14.63;;;13.00;;
11791;SDS011;5953;52.372;9.918;2023-06-22T01:28:03;14.47;;;13.17;;
11791;SDS011;5953;52.372;9.918;2023-06-22T01:30:42;14.90;;;13.50;;
11791;SDS011;5953;52.372;9.918;2023-06-22T01:33:13;15.00;;;13.60;;
11791;SDS011;5953;52.372;9.918;2023-06-22T01:35:42;14.73;;;13.43;;
11791;SDS011;5953;52.372;9.918;2023-06-22T01:38:11;14.93;;;13.53;;
11791;SDS011;5953;52.372;9.918;2023-06-22T01:40:39;14.07;;;12.73;;
11791;SDS011;5953;52.372;9.918;2023-06-22T01:43:07;15.30;;;13.90;;
11791;SDS011;5953;52.372;9.918;2023-06-22T01:45:36;14.67;;;13.33;;
11791;SDS011;5953;52.372;9.918;2023-06-22T01:48:05;15.00;;;13.60;;
11791;SDS011;5953;52.372;9.918;2023-06-22T01:50:34;15.87;;;14.40;;
11791;SDS011;5953;52.372;9.918;2023-06-22T01:53:02;14.47;;;13.07;;
11791;SDS011;5953;52.372;9.918;2023-06-22T01:55:29;15.10;;;13.67;;
11791;SDS011;5953;52.372;9.918;2023-06-22T01:57:57;15.23;;;13.80;;
11791;SDS011;5953;52.372;9.918;2023-06-22T02:00:25;16.47;;;13.73;;
11791;SDS011;5953;52.372;9.918;2023-06-22T02:02:59;14.17;;;12.73;;
11791;SDS011;5953;52.372;9.918;2023-06-22T02:05:33;15.23;;;13.80;;
11791;SDS011;5953;52.372;9.918;2023-06-22T02:08:05;15.10;;;13.33;;
11791;SDS011;5953;52.372;9.918;2023-06-22T02:10:36;13.27;;;11.97;;
11791;SDS011;5953;52.372;9.918;2023-06-22T02:13:07;14.10;;;12.80;;
11791;SDS011;5953;52.372;9.918;2023-06-22T02:15:37;14.03;;;12.50;;
11791;SDS011;5953;52.372;9.918;2023-06-22T02:18:05;13.70;;;12.40;;
11791;SDS011;5953;52.372;9.918;2023-06-22T02:20:37;13.90;;;12.60;;
11791;SDS011;5953;52.372;9.918;2023-06-22T02:23:05;14.80;;;12.73;;
11791;SDS011;5953;52.372;9.918;2023-06-22T02:25:34;14.23;;;12.60;;
11791;SDS011;5953;52.372;9.918;2023-06-22T02:28:03;14.17;;;12.67;;
11791;SDS011;5953;52.372;9.918;2023-06-22T02:30:31;13.87;;;12.47;;
11791;SDS011;5953;52.372;9.918;2023-06-22T02:32:59;14.40;;;13.03;;
11791;SDS011;5953;52.372;9.918;2023-06-22T02:35:27;13.53;;;12.27;;
11791;SDS011;5953;52.372;9.918;2023-06-22T02:37:59;13.53;;;12.13;;
11791;SDS011;5953;52.372;9.918;2023-06-22T02:40:27;13.37;;;12.20;;
11791;SDS011;5953;52.372;9.918;2023-06-22T02:42:57;14.07;;;12.77;;
11791;SDS011;5953;52.372;9.918;2023-06-22T02:45:29;13.00;;;11.70;;
11791;SDS011;5953;52.372;9.918;2023-06-22T02:47:57;13.10;;;11.80;;
11791;SDS011;5953;52.372;9.918;2023-06-22T02:50:25;12.47;;;11.27;;
11791;SDS011;5953;52.372;9.918;2023-06-22T02:52:53;13.03;;;11.73;;
11791;SDS011;5953;52.372;9.918;2023-06-22T02:55:22;13.70;;;12.27;;
11791;SDS011;5953;52.372;9.918;2023-06-22T02:57:51;12.80;;;11.50;;
11791;SDS011;5953;52.372;9.918;2023-06-22T03:00:19;13.83;;;11.77;;
11791;SDS011;5953;52.372;9.918;2023-06-22T03:02:48;12.73;;;11.43;;
11791;SDS011;5953;52.372;9.918;2023-06-22T03:05:16;13.67;;;12.27;;
11791;SDS011;5953;52.372;9.918;2023-06-22T03:07:45;13.80;;;11.93;;
11791;SDS011;5953;52.372;9.918;2023-06-22T03:10:13;13.07;;;11.73;;
11791;SDS011;5953;52.372;9.918;2023-06-22T03:12:43;13.03;;;11.83;;
11791;SDS011;5953;52.372;9.918;2023-06-22T03:15:11;12.90;;;11.77;;
11791;SDS011;5953;52.372;9.918;2023-06-22T03:17:39;11.93;;;10.73;;
11791;SDS011;5953;52.372;9.918;2023-06-22T03:20:08;13.03;;;11.73;;
11791;SDS011;5953;52.372;9.918;2023-06-22T03:22:38;12.13;;;11.03;;
11791;SDS011;5953;52.372;9.918;2023-06-22T03:25:07;13.60;;;12.23;;
11791;SDS011;5953;52.372;9.918;2023-06-22T03:27:39;12.87;;;11.60;;
11791;SDS011;5953;52.372;9.918;2023-06-22T03:30:09;12.23;;;11.13;;
11791;SDS011;5953;52.372;9.918;2023-06-22T03:32:38;12.87;;;11.63;;
11791;SDS011;5953;52.372;9.918;2023-06-22T03:35:06;12.47;;;11.30;;
11791;SDS011;5953;52.372;9.918;2023-06-22T03:37:34;12.73;;;11.63;;
11791;SDS011;5953;52.372;9.918;2023-06-22T03:40:02;13.57;;;11.50;;
11791;SDS011;5953;52.372;9.918;2023-06-22T03:42:33;13.33;;;12.03;;
11791;SDS011;5953;52.372;9.918;2023-06-22T03:45:00;12.63;;;11.37;;
11791;SDS011;5953;52.372;9.918;2023-06-22T03:47:31;10.87;;;9.90;;
11791;SDS011;5953;52.372;9.918;2023-06-22T03:50:00;12.57;;;11.37;;
11791;SDS011;5953;52.372;9.918;2023-06-22T03:52:30;15.07;;;11.40;;
11791;SDS011;5953;52.372;9.918;2023-06-22T03:54:57;12.60;;;11.37;;
11791;SDS011;5953;52.372;9.918;2023-06-22T03:57:25;11.43;;;10.37;;
11791;SDS011;5953;52.372;9.918;2023-06-22T03:59:54;12.60;;;11.30;;
11791;SDS011;5953;52.372;9.918;2023-06-22T04:02:23;13.60;;;12.20;;
11791;SDS011;5953;52.372;9.918;2023-06-22T04:04:52;13.97;;;12.70;;
11791;SDS011;5953;52.372;9.918;2023-06-22T04:07:20;12.90;;;11.60;;
11791;SDS011;5953;52.372;9.918;2023-06-22T04:09:48;13.50;;;12.17;;
11791;SDS011;5953;52.372;9.918;2023-06-22T04:12:16;13.13;;;11.87;;
11791;SDS011;5953;52.372;9.918;2023-06-22T04:14:43;14.87;;;13.37;;
11791;SDS011;5953;52.372;9.918;2023-06-22T04:17:11;12.37;;;11.27;;
11791;SDS011;5953;52.372;9.918;2023-06-22T04:19:41;13.53;;;11.80;;
11791;SDS011;5953;52.372;9.918;2023-06-22T04:22:10;14.20;;;12.90;;
11791;SDS011;5953;52.372;9.918;2023-06-22T04:24:38;12.67;;;11.43;;
11791;SDS011;5953;52.372;9.918;2023-06-22T04:27:06;12.83;;;11.53;;
11791;SDS011;5953;52.372;9.918;2023-06-22T04:29:34;14.40;;;12.90;;
11791;SDS011;5953;52.372;9.918;2023-06-22T04:32:02;12.83;;;11.57;;
11791;SDS011;5953;52.372;9.918;2023-06-22T04:34:31;12.37;;;11.27;;
11791;SDS011;5953;52.372;9.918;2023-06-22T04:36:59;13.40;;;12.10;;
11791;SDS011;5953;52.372;9.918;2023-06-22T04:39:28;13.07;;;11.47;;
11791;SDS011;5953;52.372;9.918;2023-06-22T04:41:56;13.83;;;11.47;;
11791;SDS011;5953;52.372;9.918;2023-06-22T04:44:26;13.03;;;11.47;;
11791;SDS011;5953;52.372;9.918;2023-06-22T04:46:55;15.07;;;12.07;;
11791;SDS011;5953;52.372;9.918;2023-06-22T04:49:26;11.67;;;10.63;;
11791;SDS011;5953;52.372;9.918;2023-06-22T04:51:59;14.37;;;11.50;;
11791;SDS011;5953;52.372;9.918;2023-06-22T04:54:29;12.53;;;11.37;;
11791;SDS011;5953;52.372;9.918;2023-06-22T04:56:59;12.63;;;11.43;;
11791;SDS011;5953;52.372;9.918;2023-06-22T04:59:27;12.23;;;11.03;;
11791;SDS011;5953;52.372;9.918;2023-06-22T05:01:56;11.53;;;10.43;;
11791;SDS011;5953;52.372;9.918;2023-06-22T05:04:25;12.77;;;11.47;;
11791;SDS011;5953;52.372;9.918;2023-06-22T05:06:54;11.53;;;10.47;;
11791;SDS011;5953;52.372;9.918;2023-06-22T05:09:24;11.47;;;10.43;;
11791;SDS011;5953;52.372;9.918;2023-06-22T05:11:54;12.53;;;11.27;;
11791;SDS011;5953;52.372;9.918;2023-06-22T05:14:22;11.80;;;10.60;;
11791;SDS011;5953;52.372;9.918;2023-06-22T05:16:50;15.23;;;11.70;;
11791;SDS011;5953;52.372;9.918;2023-06-22T05:19:19;12.00;;;10.83;;
11791;SDS011;5953;52.372;9.918;2023-06-22T05:21:46;11.80;;;10.20;;
11791;SDS011;5953;52.372;9.918;2023-06-22T05:24:14;11.60;;;10.40;;
11791;SDS011;5953;52.372;9.918;2023-06-22T05:26:42;12.27;;;10.40;;
11791;SDS011;5953;52.372;9.918;2023-06-22T05:29:11;10.97;;;9.87;;
11791;SDS011;5953;52.372;9.918;2023-06-22T05:31:39;10.63;;;9.53;;
11791;SDS011;5953;52.372;9.918;2023-06-22T05:34:07;11.40;;;10.23;;
11791;SDS011;5953;52.372;9.918;2023-06-22T05:36:35;12.67;;;10.30;;
11791;SDS011;5953;52.372;9.918;2023-06-22T05:39:10;11.57;;;10.37;;
11791;SDS011;5953;52.372;9.918;2023-06-22T05:41:39;10.57;;;9.47;;
11791;SDS011;5953;52.372;9.918;2023-06-22T05:44:07;11.13;;;9.37;;
11791;SDS011;5953;52.372;9.918;2023-06-22T05:46:36;11.73;;;9.90;;
11791;SDS011;5953;52.372;9.918;2023-06-22T05:49:04;9.73;;;8.83;;
11791;SDS011;5953;52.372;9.918;2023-06-22T05:51:32;9.27;;;8.37;;
11791;SDS011;5953;52.372;9.918;2023-06-22T05:54:00;10.23;;;9.20;;
11791;SDS011;5953;52.372;9.918;2023-06-22T05:56:27;9.77;;;8.50;;
11791;SDS011;5953;52.372;9.918;2023-06-22T05:58:55;11.43;;;9.53;;
11791;SDS011;5953;52.372;9.918;2023-06-22T06:01:23;9.93;;;9.00;;
11791;SDS011;5953;52.372;9.918;2023-06-22T06:03:53;10.40;;;9.37;;
11791;SDS011;5953;52.372;9.918;2023-06-22T06:06:22;10.87;;;9.77;;
11791;SDS011;5953;52.372;9.918;2023-06-22T06:08:55;9.87;;;8.37;;
11791;SDS011;5953;52.372;9.918;2023-06-22T06:11:23;9.90;;;9.00;;
11791;SDS011;5953;52.372;9.918;2023-06-22T06:13:50;20.53;;;12.10;;
11791;SDS011;5953;52.372;9.918;2023-06-22T06:16:18;15.90;;;10.05;;
11791;SDS011;5953;52.372;9.918;2023-06-22T06:18:46;12.88;;;10.50;;
11791;SDS011;5953;52.372;9.918;2023-06-22T06:21:16;11.02;;;9.93;;
11791;SDS011;5953;52.372;9.918;2023-06-22T06:23:44;11.43;;;9.53;;
11791;SDS011;5953;52.372;9.918;2023-06-22T06:26:11;9.60;;;8.70;;
11791;SDS011;5953;52.372;9.918;2023-06-22T06:28:42;10.95;;;9.57;;
11791;SDS011;5953;52.372;9.918;2023-06-22T06:31:09;10.32;;;9.32;;
11791;SDS011;5953;52.372;9.918;2023-06-22T06:33:38;9.52;;;8.65;;
11791;SDS011;5953;52.372;9.918;2023-06-22T06:36:06;9.85;;;8.95;;
11791;SDS011;5953;52.372;9.918;2023-06-22T06:38:36;9.32;;;8.43;;
11791;SDS011;5953;52.372;9.918;2023-06-22T06:41:04;9.50;;;8.60;;
11791;SDS011;5953;52.372;9.918;2023-06-22T06:43:31;8.30;;;7.40;;
11791;SDS011;5953;52.372;9.918;2023-06-22T06:45:59;8.20;;;7.40;;
11791;SDS011;5953;52.372;9.918;2023-06-22T06:48:29;8.23;;;7.03;;
11791;SDS011;5953;52.372;9.918;2023-06-22T06:50:57;8.43;;;7.60;;
11791;SDS011;5953;52.372;9.918;2023-06-22T06:53:25;7.82;;;6.90;;
11791;SDS011;5953;52.372;9.918;2023-06-22T06:55:55;7.82;;;6.80;;
11791;SDS011;5953;52.372;9.918;2023-06-22T06:58:23;7.22;;;6.53;;
11791;SDS011;5953;52.372;9.918;2023-06-22T07:00:51;6.90;;;6.20;;
11791;SDS011;5953;52.372;9.918;2023-06-22T07:03:19;8.63;;;6.20;;
11791;SDS011;5953;52.372;9.918;2023-06-22T07:05:46;7.35;;;6.60;;
11791;SDS011;5953;52.372;9.918;2023-06-22T07:08:14;6.00;;;5.43;;
11791;SDS011;5953;52.372;9.918;2023-06-22T07:10:42;5.82;;;5.32;;
11791;SDS011;5953;52.372;9.918;2023-06-22T07:13:11;6.05;;;5.50;;
11791;SDS011;5953;52.372;9.918;2023-06-22T07:15:39;7.75;;;5.70;;
11791;SDS011;5953;52.372;9.918;2023-06-22T07:18:07;6.88;;;6.13;;
11791;SDS011;5953;52.372;9.918;2023-06-22T07:20:35;7.13;;;6.00;;
11791;SDS011;5953;52.372;9.918;2023-06-22T07:23:02;6.95;;;6.35;;
11791;SDS011;5953;52.372;9.918;2023-06-22T07:25:30;7.70;;;5.00;;
11791;SDS011;5953;52.372;9.918;2023-06-22T07:27:59;6.57;;;5.90;;
11791;SDS011;5953;52.372;9.918;2023-06-22T07:30:29;10.38;;;5.70;;
11791;SDS011;5953;52.372;9.918;2023-06-22T07:32:59;6.70;;;5.85;;
11791;SDS011;5953;52.372;9.918;2023-06-22T07:35:30;6.57;;;5.72;;
11791;SDS011;5953;52.372;9.918;2023-06-22T07:37:58;6.97;;;5.68;;
11791;SDS011;5953;52.372;9.918;2023-06-22T07:40:31;8.32;;;5.90;;
11791;SDS011;5953;52.372;9.918;2023-06-22T07:42:59;8.25;;;6.95;;
11791;SDS011;5953;52.372;9.918;2023-06-22T07:45:26;6.57;;;5.97;;
11791;SDS011;5953;52.372;9.918;2023-06-22T07:47:55;6.75;;;6.00;;
11791;SDS011;5953;52.372;9.918;2023-06-22T07:50:23;8.52;;;7.15;;
11791;SDS011;5953;52.372;9.918;2023-06-22T07:52:52;7.43;;;6.68;;
11791;SDS011;5953;52.372;9.918;2023-06-22T07:55:19;7.95;;;6.57;;
11791;SDS011;5953;52.372;9.918;2023-06-22T07:57:48;8.20;;;6.95;;
11791;SDS011;5953;52.372;9.918;2023-06-22T08:00:18;6.90;;;6.20;;
11791;SDS011;5953;52.372;9.918;2023-06-22T08:02:46;7.70;;;7.00;;
11791;SDS011;5953;52.372;9.918;2023-06-22T08:05:16;7.90;;;7.10;;
11791;SDS011;5953;52.372;9.918;2023-06-22T08:07:48;7.95;;;7.10;;
11791;SDS011;5953;52.372;9.918;2023-06-22T08:10:16;7.18;;;6.57;;
11791;SDS011;5953;52.372;9.918;2023-06-22T08:12:45;8.32;;;7.47;;
11791;SDS011;5953;52.372;9.918;2023-06-22T08:15:13;8.73;;;7.68;;
11791;SDS011;5953;52.372;9.918;2023-06-22T08:17:41;10.02;;;8.45;;
11791;SDS011;5953;52.372;9.918;2023-06-22T08:20:10;10.68;;;8.40;;
11791;SDS011;5953;52.372;9.918;2023-06-22T08:22:40;9.10;;;7.80;;
11791;SDS011;5953;52.372;9.918;2023-06-22T08:25:09;8.68;;;7.90;;
11791;SDS011;5953;52.372;9.918;2023-06-22T08:27:37;8.90;;;8.00;;
11791;SDS011;5953;52.372;9.918;2023-06-22T08:30:06;9.32;;;7.25;;
11791;SDS011;5953;52.372;9.918;2023-06-22T08:32:34;10.55;;;9.45;;
11791;SDS011;5953;52.372;9.918;2023-06-22T08:35:02;9.50;;;8.60;;
11791;SDS011;5953;52.372;9.918;2023-06-22T08:37:32;10.07;;;8.93;;
11791;SDS011;5953;52.372;9.918;2023-06-22T08:40:04;10.40;;;9.27;;
11791;SDS011;5953;52.372;9.918;2023-06-22T08:42:35;10.68;;;9.60;;
11791;SDS011;5953;52.372;9.918;2023-06-22T08:45:04;9.95;;;9.02;;
11791;SDS011;5953;52.372;9.918;2023-06-22T08:47:32;11.65;;;9.90;;
11791;SDS011;5953;52.372;9.918;2023-06-22T08:50:00;11.98;;;10.32;;
11791;SDS011;5953;52.372;9.918;2023-06-22T08:52:29;11.90;;;10.75;;
11791;SDS011;5953;52.372;9.918;2023-06-22T08:54:57;11.05;;;9.98;;
11791;SDS011;5953;52.372;9.918;2023-06-22T08:57:27;10.32;;;9.20;;
11791;SDS011;5953;52.372;9.918;2023-06-22T08:59:55;11.18;;;10.07;;
11791;SDS011;5953;52.372;9.918;2023-06-22T09:02:25;12.23;;;9.88;;
11791;SDS011;5953;52.372;9.918;2023-06-22T09:04:58;10.18;;;9.27;;
11791;SDS011;5953;52.372;9.918;2023-06-22T09:07:26;11.60;;;10.40;;
11791;SDS011;5953;52.372;9.918;2023-06-22T09:09:55;12.27;;;10.75;;
11791;SDS011;5953;52.372;9.918;2023-06-22T09:12:23;14.32;;;10.32;;
11791;SDS011;5953;52.372;9.918;2023-06-22T09:14:54;12.20;;;10.98;;
11791;SDS011;5953;52.372;9.918;2023-06-22T09:17:22;11.90;;;10.68;;
11791;SDS011;5953;52.372;9.918;2023-06-22T09:19:51;12.23;;;10.02;;
11791;SDS011;5953;52.372;9.918;2023-06-22T09:22:18;12.10;;;10.93;;
11791;SDS011;5953;52.372;9.918;2023-06-22T09:24:47;13.73;;;12.13;;
11791;SDS011;5953;52.372;9.918;2023-06-22T09:27:14;11.95;;;10.32;;
11791;SDS011;5953;52.372;9.918;2023-06-22T09:29:42;16.13;;;11.85;;
11791;SDS011;5953;52.372;9.918;2023-06-22T09:32:11;12.57;;;11.38;;
11791;SDS011;5953;52.372;9.918;2023-06-22T09:34:39;11.88;;;10.18;;
11791;SDS011;5953;52.372;9.918;2023-06-22T09:37:07;12.88;;;11.57;;
11791;SDS011;5953;52.372;9.918;2023-06-22T09:39:35;11.65;;;10.50;;
11791;SDS011;5953;52.372;9.918;2023-06-22T09:42:03;12.82;;;11.63;;
11791;SDS011;5953;52.372;9.918;2023-06-22T09:44:32;11.82;;;10.65;;
11791;SDS011;5953;52.372;9.918;2023-06-22T09:47:00;13.52;;;11.57;;
11791;SDS011;5953;52.372;9.918;2023-06-22T09:49:29;15.15;;;12.35;;
11791;SDS011;5953;52.372;9.918;2023-06-22T09:52:13;13.25;;;11.93;;
11791;SDS011;5953;52.372;9.918;2023-06-22T09:54:41;13.75;;;11.82;;
11791;SDS011;5953;52.372;9.918;2023-06-22T09:57:09;12.57;;;11.27;;
11791;SDS011;5953;52.372;9.918;2023-06-22T09:59:37;11.50;;;10.35;;
11791;SDS011;5953;52.372;9.918;2023-06-22T10:02:06;12.02;;;10.82;;
11791;SDS011;5953;52.372;9.918;2023-06-22T10:04:35;14.05;;;12.52;;
11791;SDS011;5953;52.372;9.918;2023-06-22T10:07:04;12.23;;;11.00;;
11791;SDS011;5953;52.372;9.918;2023-06-22T10:09:32;14.98;;;13.15;;
11791;SDS011;5953;52.372;9.918;2023-06-22T10:12:01;13.15;;;11.75;;
11791;SDS011;5953;52.372;9.918;2023-06-22T10:14:28;13.73;;;12.40;;
11791;SDS011;5953;52.372;9.918;2023-06-22T10:16:56;14.02;;;12.68;;
11791;SDS011;5953;52.372;9.918;2023-06-22T10:19:25;13.40;;;11.93;;
11791;SDS011;5953;52.372;9.918;2023-06-22T10:21:54;13.70;;;12.38;;
11791;SDS011;5953;52.372;9.918;2023-06-22T10:24:22;13.20;;;11.80;;
11791;SDS011;5953;52.372;9.918;2023-06-22T10:26:50;13.13;;;11.82;;
11791;SDS011;5953;52.372;9.918;2023-06-22T10:29:18;14.68;;;13.20;;
11791;SDS011;5953;52.372;9.918;2023-06-22T10:31:46;14.27;;;12.88;;
11791;SDS011;5953;52.372;9.918;2023-06-22T10:34:13;13.45;;;12.15;;
11791;SDS011;5953;52.372;9.918;2023-06-22T10:36:41;16.30;;;13.10;;
11791;SDS011;5953;52.372;9.918;2023-06-22T10:39:10;13.35;;;12.13;;
11791;SDS011;5953;52.372;9.918;2023-06-22T10:41:38;13.88;;;12.55;;
11791;SDS011;5953;52.372;9.918;2023-06-22T10:44:07;13.35;;;11.98;;
11791;SDS011;5953;52.372;9.918;2023-06-22T10:46:35;13.38;;;12.15;;
11791;SDS011;5953;52.372;9.918;2023-06-22T10:49:04;13.77;;;12.15;;
11791;SDS011;5953;52.372;9.918;2023-06-22T10:51:32;13.85;;;12.48;;
11791;SDS011;5953;52.372;9.918;2023-06-22T10:53:59;13.57;;;12.38;;
11791;SDS011;5953;52.372;9.918;2023-06-22T10:56:29;13.07;;;11.77;;
11791;SDS011;5953;52.372;9.918;2023-06-22T10:58:56;13.77;;;11.88;;
11791;SDS011;5953;52.372;9.918;2023-06-22T11:01:24;12.40;;;11.20;;
11791;SDS011;5953;52.372;9.918;2023-06-22T11:04:02;13.23;;;12.02;;
11791;SDS011;5953;52.372;9.918;2023-06-22T11:06:31;12.85;;;11.65;;
11791;SDS011;5953;52.372;9.918;2023-06-22T11:08:59;13.13;;;11.93;;
11791;SDS011;5953;52.372;9.918;2023-06-22T11:11:31;15.45;;;13.93;;
11791;SDS011;5953;52.372;9.918;2023-06-22T11:13:59;12.90;;;11.70;;
11791;SDS011;5953;52.372;9.918;2023-06-22T11:16:27;14.05;;;12.20;;
11791;SDS011;5953;52.372;9.918;2023-06-22T11:18:55;14.00;;;12.40;;
11791;SDS011;5953;52.372;9.918;2023-06-22T11:21:22;13.55;;;12.23;;
11791;SDS011;5953;52.372;9.918;2023-06-22T11:23:50;14.00;;;12.70;;
11791;SDS011;5953;52.372;9.918;2023-06-22T11:26:18;13.32;;;12.02;;
11791;SDS011;5953;52.372;9.918;2023-06-22T11:28:48;12.85;;;11.65;;
11791;SDS011;5953;52.372;9.918;2023-06-22T11:31:16;15.20;;;12.55;;
11791;SDS011;5953;52.372;9.918;2023-06-22T11:33:52;12.77;;;11.20;;
11791;SDS011;5953;52.372;9.918;2023-06-22T11:36:20;12.52;;;11.23;;
11791;SDS011;5953;52.372;9.918;2023-06-22T11:38:48;13.70;;;12.30;;
11791;SDS011;5953;52.372;9.918;2023-06-22T11:41:16;13.40;;;12.07;;
11791;SDS011;5953;52.372;9.918;2023-06-22T11:43:43;13.93;;;12.55;;
11791;SDS011;5953;52.372;9.918;2023-06-22T11:46:13;13.75;;;11.77;;
11791;SDS011;5953;52.372;9.918;2023-06-22T11:48:41;12.75;;;11.38;;
11791;SDS011;5953;52.372;9.918;2023-06-22T11:51:08;14.15;;;12.63;;
11791;SDS011;5953;52.372;9.918;2023-06-22T11:53:36;13.57;;;12.43;;
11791;SDS011;5953;52.372;9.918;2023-06-22T11:56:04;12.95;;;11.68;;
11791;SDS011;5953;52.372;9.918;2023-06-22T11:58:33;12.48;;;11.27;;
11791;SDS011;5953;52.372;9.918;2023-06-22T12:01:01;14.57;;;13.27;;
11791;SDS011;5953;52.372;9.918;2023-06-22T12:03:30;13.02;;;11.82;;
11791;SDS011;5953;52.372;9.918;2023-06-22T12:05:59;13.30;;;12.05;;
11791;SDS011;5953;52.372;9.918;2023-06-22T12:08:27;13.45;;;12.15;;
11791;SDS011;5953;52.372;9.918;2023-06-22T12:10:55;13.80;;;12.48;;
11791;SDS011;5953;52.372;9.918;2023-06-22T12:13:23;12.30;;;11.30;;
11791;SDS011;5953;52.372;9.918;2023-06-22T12:15:51;12.70;;;11.60;;
11791;SDS011;5953;52.372;9.918;2023-06-22T12:18:19;14.10;;;12.80;;
11791;SDS011;5953;52.372;9.918;2023-06-22T12:20:49;13.30;;;12.00;;
11791;SDS011;5953;52.372;9.918;2023-06-22T12:23:17;12.82;;;11.55;;
11791;SDS011;5953;52.372;9.918;2023-06-22T12:25:46;13.07;;;11.85;;
11791;SDS011;5953;52.372;9.918;2023-06-22T12:28:13;12.00;;;10.90;;
11791;SDS011;5953;52.372;9.918;2023-06-22T12:30:41;12.48;;;11.38;;
11791;SDS011;5953;52.372;9.918;2023-06-22T12:33:09;12.82;;;10.45;;
11791;SDS011;5953;52.372;9.918;2023-06-22T12:35:37;10.50;;;9.52;;
11791;SDS011;5953;52.372;9.918;2023-06-22T12:38:06;11.48;;;10.38;;
11791;SDS011;5953;52.372;9.918;2023-06-22T12:40:36;11.55;;;10.18;;
11791;SDS011;5953;52.372;9.918;2023-06-22T12:43:03;12.10;;;10.90;;
11791;SDS011;5953;52.372;9.918;2023-06-22T12:45:31;10.63;;;9.60;;
11791;SDS011;5953;52.372;9.918;2023-06-22T12:47:59;11.10;;;10.10;;
11791;SDS011;5953;52.372;9.918;2023-06-22T12:50:27;10.40;;;9.43;;
11791;SDS011;5953;52.372;9.918;2023-06-22T12:52:56;12.07;;;10.57;;
11791;SDS011;5953;52.372;9.918;2023-06-22T12:55:25;12.10;;;11.00;;
11791;SDS011;5953;52.372;9.918;2023-06-22T12:57:53;10.90;;;10.00;;
11791;SDS011;5953;52.372;9.918;2023-06-22T13:00:22;10.35;;;9.43;;
11791;SDS011;5953;52.372;9.918;2023-06-22T13:02:52;11.10;;;9.52;;
11791;SDS011;5953;52.372;9.918;2023-06-22T13:05:22;10.73;;;9.73;;
11791;SDS011;5953;52.372;9.918;2023-06-22T13:07:50;10.40;;;9.35;;
11791;SDS011;5953;52.372;9.918;2023-06-22T13:10:17;10.82;;;9.75;;
11791;SDS011;5953;52.372;9.918;2023-06-22T13:12:46;11.05;;;10.02;;
11791;SDS011;5953;52.372;9.918;2023-06-22T13:15:14;11.15;;;10.10;;
11791;SDS011;5953;52.372;9.918;2023-06-22T13:17:42;11.50;;;10.40;;
11791;SDS011;5953;52.372;9.918;2023-06-22T13:20:10;12.18;;;10.95;;
11791;SDS011;5953;52.372;9.918;2023-06-22T13:22:39;11.38;;;10.40;;
11791;SDS011;5953;52.372;9.918;2023-06-22T13:25:09;11.38;;;10.38;;
11791;SDS011;5953;52.372;9.918;2023-06-22T13:27:39;11.95;;;10.77;;
11791;SDS011;5953;52.372;9.918;2023-06-22T13:30:09;12.40;;;11.20;;
11791;SDS011;5953;52.372;9.918;2023-06-22T13:32:39;12.90;;;11.70;;
11791;SDS011;5953;52.372;9.918;2023-06-22T13:35:09;12.10;;;11.10;;
11791;SDS011;5953;52.372;9.918;2023-06-22T13:37:37;12.30;;;11.20;;
11791;SDS011;5953;52.372;9.918;2023-06-22T13:40:06;12.57;;;11.27;;
11791;SDS011;5953;52.372;9.918;2023-06-22T13:42:34;12.25;;;11.15;;
11791;SDS011;5953;52.372;9.918;2023-06-22T13:45:02;11.40;;;10.40;;
11791;SDS011;5953;52.372;9.918;2023-06-22T13:47:32;12.55;;;11.45;;
11791;SDS011;5953;52.372;9.918;2023-06-22T13:50:00;12.27;;;11.27;;
11791;SDS011;5953;52.372;9.918;2023-06-22T13:52:29;12.88;;;11.68;;
11791;SDS011;5953;52.372;9.918;2023-06-22T13:54:57;12.25;;;11.15;;
11791;SDS011;5953;52.372;9.918;2023-06-22T13:57:24;12.45;;;11.45;;
11791;SDS011;5953;52.372;9.918;2023-06-22T13:59:52;12.25;;;11.23;;
11791;SDS011;5953;52.372;9.918;2023-06-22T14:02:20;12.05;;;10.95;;
11791;SDS011;5953;52.372;9.918;2023-06-22T14:04:50;12.65;;;11.55;;
11791;SDS011;5953;52.372;9.918;2023-06-22T14:07:18;12.30;;;11.20;;
11791;SDS011;5953;52.372;9.918;2023-06-22T14:09:47;12.55;;;11.55;;
11791;SDS011;5953;52.372;9.918;2023-06-22T14:12:16;13.52;;;12.32;;
11791;SDS011;5953;52.372;9.918;2023-06-22T14:14:44;12.80;;;11.70;;
11791;SDS011;5953;52.372;9.918;2023-06-22T14:17:11;13.27;;;12.05;;
11791;SDS011;5953;52.372;9.918;2023-06-22T14:19:39;15.02;;;13.63;;
11791;SDS011;5953;52.372;9.918;2023-06-22T14:22:09;15.50;;;14.02;;
11791;SDS011;5953;52.372;9.918;2023-06-22T14:24:37;15.93;;;14.35;;
11791;SDS011;5953;52.372;9.918;2023-06-22T14:27:05;15.88;;;14.38;;
11791;SDS011;5953;52.372;9.918;2023-06-22T14:29:34;15.77;;;14.30;;
11791;SDS011;5953;52.372;9.918;2023-06-22T14:32:02;15.98;;;14.60;;
11791;SDS011;5953;52.372;9.918;2023-06-22T14:34:32;15.90;;;14.43;;
11791;SDS011;5953;52.372;9.918;2023-06-22T14:37:02;15.10;;;13.65;;
11791;SDS011;5953;52.372;9.918;2023-06-22T14:39:31;15.57;;;14.15;;
11791;SDS011;5953;52.372;9.918;2023-06-22T14:41:59;15.55;;;14.05;;
11791;SDS011;5953;52.372;9.918;2023-06-22T14:44:27;14.57;;;13.25;;
11791;SDS011;5953;52.372;9.918;2023-06-22T14:46:56;15.35;;;13.95;;
11791;SDS011;5953;52.372;9.918;2023-06-22T14:49:23;14.63;;;13.32;;